sensor_id;sensor_type;location;lat;lon;timestamp;P1;durP1;ratioP1;P2;durP2;ratioP2
18875;SDS011;9570;50.854;13.778;2023-05-10T00:01:15;3.40;;;2.90;;
18875;SDS011;9570;50.854;13.778;2023-05-10T00:03:41;3.83;;;2.67;;
18875;SDS011;9570;50.854;13.778;2023-05-10T00:06:06;3.10;;;2.70;;
18875;SDS011;9570;50.854;13.778;2023-05-10T00:08:32;4.37;;;3.10;;
18875;SDS011;9570;50.854;13.778;2023-05-10T00:10:57;4.87;;;2.50;;
18875;SDS011;9570;50.854;13.778;2023-05-10T00:13:23;4.23;;;2.83;;
18875;SDS011;9570;50.854;13.778;2023-05-10T00:15:48;4.60;;;2.60;;
18875;SDS011;9570;50.854;13.778;2023-05-10T00:18:14;5.93;;;2.50;;
18875;SDS011;9570;50.854;13.778;2023-05-10T00:20:39;2.90;;;2.60;;
18875;SDS011;9570;50.854;13.778;2023-05-10T00:23:04;3.17;;;2.47;;
18875;SDS011;9570;50.854;13.778;2023-05-10T00:25:31;3.73;;;2.40;;
18875;SDS011;9570;50.854;13.778;2023-05-10T00:27:56;2.70;;;2.47;;
18875;SDS011;9570;50.854;13.778;2023-05-10T00:30:22;3.60;;;2.53;;
18875;SDS011;9570;50.854;13.778;2023-05-10T00:32:47;3.90;;;2.77;;
18875;SDS011;9570;50.854;13.778;2023-05-10T00:35:14;3.07;;;2.33;;
18875;SDS011;9570;50.854;13.778;2023-05-10T00:37:40;4.40;;;2.97;;
18875;SDS011;9570;50.854;13.778;2023-05-10T00:40:06;2.80;;;2.27;;
18875;SDS011;9570;50.854;13.778;2023-05-10T00:42:32;3.13;;;2.57;;
18875;SDS011;9570;50.854;13.778;2023-05-10T00:44:57;2.60;;;2.33;;
18875;SDS011;9570;50.854;13.778;2023-05-10T00:47:23;4.30;;;2.30;;
18875;SDS011;9570;50.854;13.778;2023-05-10T00:49:48;4.07;;;2.40;;
18875;SDS011;9570;50.854;13.778;2023-05-10T00:52:14;3.67;;;2.47;;
18875;SDS011;9570;50.854;13.778;2023-05-10T00:54:40;2.53;;;2.30;;
18875;SDS011;9570;50.854;13.778;2023-05-10T00:57:06;2.40;;;2.20;;
18875;SDS011;9570;50.854;13.778;2023-05-10T00:59:31;2.90;;;2.10;;
18875;SDS011;9570;50.854;13.778;2023-05-10T01:01:57;10.03;;;2.87;;
18875;SDS011;9570;50.854;13.778;2023-05-10T01:04:23;4.00;;;2.40;;
18875;SDS011;9570;50.854;13.778;2023-05-10T01:06:50;5.07;;;2.47;;
18875;SDS011;9570;50.854;13.778;2023-05-10T01:09:17;3.03;;;2.17;;
18875;SDS011;9570;50.854;13.778;2023-05-10T01:11:43;2.63;;;2.20;;
18875;SDS011;9570;50.854;13.778;2023-05-10T01:14:12;5.30;;;2.23;;
18875;SDS011;9570;50.854;13.778;2023-05-10T01:16:38;3.67;;;2.10;;
18875;SDS011;9570;50.854;13.778;2023-05-10T01:19:10;5.40;;;2.40;;
18875;SDS011;9570;50.854;13.778;2023-05-10T01:21:53;3.33;;;2.57;;
18875;SDS011;9570;50.854;13.778;2023-05-10T01:24:59;3.23;;;2.27;;
18875;SDS011;9570;50.854;13.778;2023-05-10T01:36:31;2.40;;;2.17;;
18875;SDS011;9570;50.854;13.778;2023-05-10T01:39:25;2.33;;;2.10;;
18875;SDS011;9570;50.854;13.778;2023-05-10T01:42:10;4.63;;;2.00;;
18875;SDS011;9570;50.854;13.778;2023-05-10T01:49:53;2.83;;;2.40;;
18875;SDS011;9570;50.854;13.778;2023-05-10T01:52:25;2.60;;;2.40;;
18875;SDS011;9570;50.854;13.778;2023-05-10T01:54:58;7.33;;;2.40;;
18875;SDS011;9570;50.854;13.778;2023-05-10T01:57:32;4.87;;;2.60;;
18875;SDS011;9570;50.854;13.778;2023-05-10T02:00:01;5.43;;;2.37;;
18875;SDS011;9570;50.854;13.778;2023-05-10T02:02:28;4.23;;;2.40;;
18875;SDS011;9570;50.854;13.778;2023-05-10T02:04:55;3.07;;;2.43;;
18875;SDS011;9570;50.854;13.778;2023-05-10T02:07:23;2.90;;;2.23;;
18875;SDS011;9570;50.854;13.778;2023-05-10T02:09:49;2.30;;;2.10;;
18875;SDS011;9570;50.854;13.778;2023-05-10T02:12:15;2.97;;;2.20;;
18875;SDS011;9570;50.854;13.778;2023-05-10T02:14:42;3.07;;;2.40;;
18875;SDS011;9570;50.854;13.778;2023-05-10T02:17:09;4.77;;;2.40;;
18875;SDS011;9570;50.854;13.778;2023-05-10T02:19:36;6.63;;;2.47;;
18875;SDS011;9570;50.854;13.778;2023-05-10T02:22:03;3.27;;;2.20;;
18875;SDS011;9570;50.854;13.778;2023-05-10T02:24:30;6.70;;;2.50;;
18875;SDS011;9570;50.854;13.778;2023-05-10T02:26:56;3.80;;;2.53;;
18875;SDS011;9570;50.854;13.778;2023-05-10T02:29:23;2.37;;;2.17;;
18875;SDS011;9570;50.854;13.778;2023-05-10T02:31:51;2.57;;;2.17;;
18875;SDS011;9570;50.854;13.778;2023-05-10T02:34:19;3.63;;;2.37;;
18875;SDS011;9570;50.854;13.778;2023-05-10T02:36:47;3.70;;;2.13;;
18875;SDS011;9570;50.854;13.778;2023-05-10T02:39:13;5.00;;;2.10;;
18875;SDS011;9570;50.854;13.778;2023-05-10T02:41:40;2.53;;;2.33;;
18875;SDS011;9570;50.854;13.778;2023-05-10T02:44:07;3.97;;;2.43;;
18875;SDS011;9570;50.854;13.778;2023-05-10T02:46:34;3.77;;;2.43;;
18875;SDS011;9570;50.854;13.778;2023-05-10T02:49:01;2.73;;;2.43;;
18875;SDS011;9570;50.854;13.778;2023-05-10T02:51:28;3.13;;;2.40;;
18875;SDS011;9570;50.854;13.778;2023-05-10T02:53:56;4.53;;;2.70;;
18875;SDS011;9570;50.854;13.778;2023-05-10T02:56:30;4.17;;;2.60;;
18875;SDS011;9570;50.854;13.778;2023-05-10T02:58:59;2.67;;;2.40;;
18875;SDS011;9570;50.854;13.778;2023-05-10T03:01:24;3.13;;;2.57;;
18875;SDS011;9570;50.854;13.778;2023-05-10T03:03:50;2.90;;;2.53;;
18875;SDS011;9570;50.854;13.778;2023-05-10T03:06:15;5.33;;;2.53;;
18875;SDS011;9570;50.854;13.778;2023-05-10T03:08:41;4.57;;;2.70;;
18875;SDS011;9570;50.854;13.778;2023-05-10T03:14:04;2.40;;;2.20;;
18875;SDS011;9570;50.854;13.778;2023-05-10T03:19:52;3.10;;;2.60;;
18875;SDS011;9570;50.854;13.778;2023-05-10T03:22:21;3.17;;;2.87;;
18875;SDS011;9570;50.854;13.778;2023-05-10T03:24:55;3.13;;;2.80;;
18875;SDS011;9570;50.854;13.778;2023-05-10T03:27:23;3.20;;;2.30;;
18875;SDS011;9570;50.854;13.778;2023-05-10T03:29:50;3.13;;;2.47;;
18875;SDS011;9570;50.854;13.778;2023-05-10T03:32:17;4.20;;;2.47;;
18875;SDS011;9570;50.854;13.778;2023-05-10T03:34:42;3.67;;;2.50;;
18875;SDS011;9570;50.854;13.778;2023-05-10T03:37:08;3.03;;;2.73;;
18875;SDS011;9570;50.854;13.778;2023-05-10T03:39:34;2.80;;;2.60;;
18875;SDS011;9570;50.854;13.778;2023-05-10T03:42:01;3.00;;;2.40;;
18875;SDS011;9570;50.854;13.778;2023-05-10T03:44:26;3.43;;;2.63;;
18875;SDS011;9570;50.854;13.778;2023-05-10T03:46:52;4.67;;;2.37;;
18875;SDS011;9570;50.854;13.778;2023-05-10T03:49:17;5.00;;;2.60;;
18875;SDS011;9570;50.854;13.778;2023-05-10T03:51:43;3.50;;;2.13;;
18875;SDS011;9570;50.854;13.778;2023-05-10T03:54:08;4.10;;;2.67;;
18875;SDS011;9570;50.854;13.778;2023-05-10T03:56:34;2.83;;;2.53;;
18875;SDS011;9570;50.854;13.778;2023-05-10T03:58:59;4.70;;;2.50;;
18875;SDS011;9570;50.854;13.778;2023-05-10T04:01:25;2.80;;;2.50;;
18875;SDS011;9570;50.854;13.778;2023-05-10T04:03:50;3.40;;;2.40;;
18875;SDS011;9570;50.854;13.778;2023-05-10T04:06:16;3.50;;;2.47;;
18875;SDS011;9570;50.854;13.778;2023-05-10T04:08:41;4.70;;;2.50;;
18875;SDS011;9570;50.854;13.778;2023-05-10T04:11:07;3.33;;;2.43;;
18875;SDS011;9570;50.854;13.778;2023-05-10T04:13:34;3.00;;;2.70;;
18875;SDS011;9570;50.854;13.778;2023-05-10T04:15:59;3.50;;;2.30;;
18875;SDS011;9570;50.854;13.778;2023-05-10T04:18:25;5.17;;;2.40;;
18875;SDS011;9570;50.854;13.778;2023-05-10T04:20:50;3.50;;;2.20;;
18875;SDS011;9570;50.854;13.778;2023-05-10T04:23:16;2.73;;;2.30;;
18875;SDS011;9570;50.854;13.778;2023-05-10T04:25:42;3.17;;;2.50;;
18875;SDS011;9570;50.854;13.778;2023-05-10T04:28:07;3.13;;;2.37;;
18875;SDS011;9570;50.854;13.778;2023-05-10T04:30:36;5.03;;;2.40;;
18875;SDS011;9570;50.854;13.778;2023-05-10T04:33:02;3.67;;;1.90;;
18875;SDS011;9570;50.854;13.778;2023-05-10T04:35:27;5.87;;;2.50;;
18875;SDS011;9570;50.854;13.778;2023-05-10T04:37:53;4.30;;;2.53;;
18875;SDS011;9570;50.854;13.778;2023-05-10T04:40:19;4.07;;;2.47;;
18875;SDS011;9570;50.854;13.778;2023-05-10T04:42:45;3.57;;;2.70;;
18875;SDS011;9570;50.854;13.778;2023-05-10T04:45:10;4.00;;;2.43;;
18875;SDS011;9570;50.854;13.778;2023-05-10T04:47:36;4.20;;;2.50;;
18875;SDS011;9570;50.854;13.778;2023-05-10T04:50:02;4.80;;;2.17;;
18875;SDS011;9570;50.854;13.778;2023-05-10T04:52:31;2.67;;;2.13;;
18875;SDS011;9570;50.854;13.778;2023-05-10T04:54:56;6.13;;;2.23;;
18875;SDS011;9570;50.854;13.778;2023-05-10T04:57:22;3.77;;;2.43;;
18875;SDS011;9570;50.854;13.778;2023-05-10T04:59:47;2.90;;;2.10;;
18875;SDS011;9570;50.854;13.778;2023-05-10T05:02:13;3.73;;;2.50;;
18875;SDS011;9570;50.854;13.778;2023-05-10T05:04:38;2.70;;;2.30;;
18875;SDS011;9570;50.854;13.778;2023-05-10T05:07:04;3.00;;;2.30;;
18875;SDS011;9570;50.854;13.778;2023-05-10T05:09:29;4.03;;;2.60;;
18875;SDS011;9570;50.854;13.778;2023-05-10T05:11:56;2.93;;;2.20;;
18875;SDS011;9570;50.854;13.778;2023-05-10T05:14:22;3.27;;;2.30;;
18875;SDS011;9570;50.854;13.778;2023-05-10T05:16:49;2.70;;;2.23;;
18875;SDS011;9570;50.854;13.778;2023-05-10T05:19:15;4.90;;;2.33;;
18875;SDS011;9570;50.854;13.778;2023-05-10T05:21:41;5.37;;;2.43;;
18875;SDS011;9570;50.854;13.778;2023-05-10T05:24:06;3.53;;;2.17;;
18875;SDS011;9570;50.854;13.778;2023-05-10T05:26:32;4.17;;;2.50;;
18875;SDS011;9570;50.854;13.778;2023-05-10T05:28:58;6.43;;;2.57;;
18875;SDS011;9570;50.854;13.778;2023-05-10T05:31:23;5.70;;;2.30;;
18875;SDS011;9570;50.854;13.778;2023-05-10T05:33:49;3.93;;;2.17;;
18875;SDS011;9570;50.854;13.778;2023-05-10T05:36:14;3.97;;;2.40;;
18875;SDS011;9570;50.854;13.778;2023-05-10T05:38:40;4.90;;;2.47;;
18875;SDS011;9570;50.854;13.778;2023-05-10T05:41:05;5.17;;;2.37;;
18875;SDS011;9570;50.854;13.778;2023-05-10T05:43:31;4.40;;;2.40;;
18875;SDS011;9570;50.854;13.778;2023-05-10T05:45:56;4.63;;;2.37;;
18875;SDS011;9570;50.854;13.778;2023-05-10T05:48:22;4.43;;;2.60;;
18875;SDS011;9570;50.854;13.778;2023-05-10T05:50:48;4.20;;;2.23;;
18875;SDS011;9570;50.854;13.778;2023-05-10T05:53:13;2.23;;;2.00;;
18875;SDS011;9570;50.854;13.778;2023-05-10T05:55:39;3.93;;;2.50;;
18875;SDS011;9570;50.854;13.778;2023-05-10T05:58:05;4.10;;;2.30;;
18875;SDS011;9570;50.854;13.778;2023-05-10T06:00:30;3.93;;;2.37;;
18875;SDS011;9570;50.854;13.778;2023-05-10T06:02:56;3.90;;;2.50;;
18875;SDS011;9570;50.854;13.778;2023-05-10T06:05:21;3.27;;;2.70;;
18875;SDS011;9570;50.854;13.778;2023-05-10T06:07:47;4.17;;;2.40;;
18875;SDS011;9570;50.854;13.778;2023-05-10T06:10:12;3.93;;;2.70;;
18875;SDS011;9570;50.854;13.778;2023-05-10T06:12:38;3.30;;;2.47;;
18875;SDS011;9570;50.854;13.778;2023-05-10T06:15:03;3.93;;;2.30;;
18875;SDS011;9570;50.854;13.778;2023-05-10T06:17:29;3.43;;;2.30;;
18875;SDS011;9570;50.854;13.778;2023-05-10T06:19:55;2.87;;;2.47;;
18875;SDS011;9570;50.854;13.778;2023-05-10T06:22:21;2.97;;;2.67;;
18875;SDS011;9570;50.854;13.778;2023-05-10T06:24:49;3.40;;;2.60;;
18875;SDS011;9570;50.854;13.778;2023-05-10T06:27:14;3.80;;;2.37;;
18875;SDS011;9570;50.854;13.778;2023-05-10T06:29:40;3.60;;;2.30;;
18875;SDS011;9570;50.854;13.778;2023-05-10T06:32:06;3.53;;;2.60;;
18875;SDS011;9570;50.854;13.778;2023-05-10T06:34:31;6.07;;;2.50;;
18875;SDS011;9570;50.854;13.778;2023-05-10T06:36:57;2.87;;;2.57;;
18875;SDS011;9570;50.854;13.778;2023-05-10T06:39:22;4.67;;;2.53;;
18875;SDS011;9570;50.854;13.778;2023-05-10T06:41:48;3.90;;;2.23;;
18875;SDS011;9570;50.854;13.778;2023-05-10T06:44:13;4.33;;;3.00;;
18875;SDS011;9570;50.854;13.778;2023-05-10T06:46:39;4.90;;;2.30;;
18875;SDS011;9570;50.854;13.778;2023-05-10T06:49:04;5.13;;;2.60;;
18875;SDS011;9570;50.854;13.778;2023-05-10T06:51:30;3.60;;;2.67;;
18875;SDS011;9570;50.854;13.778;2023-05-10T06:53:55;3.80;;;2.50;;
18875;SDS011;9570;50.854;13.778;2023-05-10T06:56:21;6.93;;;2.67;;
18875;SDS011;9570;50.854;13.778;2023-05-10T06:58:47;3.37;;;2.57;;
18875;SDS011;9570;50.854;13.778;2023-05-10T07:01:12;7.63;;;2.30;;
18875;SDS011;9570;50.854;13.778;2023-05-10T07:03:38;3.63;;;2.40;;
18875;SDS011;9570;50.854;13.778;2023-05-10T07:06:04;14.50;;;3.33;;
18875;SDS011;9570;50.854;13.778;2023-05-10T07:08:33;7.07;;;2.97;;
18875;SDS011;9570;50.854;13.778;2023-05-10T07:11:02;3.80;;;2.67;;
18875;SDS011;9570;50.854;13.778;2023-05-10T07:13:29;9.73;;;3.13;;
18875;SDS011;9570;50.854;13.778;2023-05-10T07:15:56;4.10;;;2.60;;
18875;SDS011;9570;50.854;13.778;2023-05-10T07:18:22;5.20;;;2.93;;
18875;SDS011;9570;50.854;13.778;2023-05-10T07:20:47;2.30;;;2.10;;
18875;SDS011;9570;50.854;13.778;2023-05-10T07:23:13;2.70;;;2.50;;
18875;SDS011;9570;50.854;13.778;2023-05-10T07:25:38;3.37;;;2.53;;
18875;SDS011;9570;50.854;13.778;2023-05-10T07:28:04;5.60;;;2.73;;
18875;SDS011;9570;50.854;13.778;2023-05-10T07:30:30;3.87;;;2.70;;
18875;SDS011;9570;50.854;13.778;2023-05-10T07:32:55;5.03;;;2.60;;
18875;SDS011;9570;50.854;13.778;2023-05-10T07:35:21;5.07;;;2.60;;
18875;SDS011;9570;50.854;13.778;2023-05-10T07:37:46;6.07;;;2.90;;
18875;SDS011;9570;50.854;13.778;2023-05-10T07:40:12;5.87;;;2.90;;
18875;SDS011;9570;50.854;13.778;2023-05-10T07:42:37;4.53;;;2.67;;
18875;SDS011;9570;50.854;13.778;2023-05-10T07:45:03;3.73;;;2.63;;
18875;SDS011;9570;50.854;13.778;2023-05-10T07:47:29;4.57;;;2.70;;
18875;SDS011;9570;50.854;13.778;2023-05-10T07:49:54;3.33;;;2.57;;
18875;SDS011;9570;50.854;13.778;2023-05-10T07:52:20;2.77;;;2.57;;
18875;SDS011;9570;50.854;13.778;2023-05-10T07:54:45;3.77;;;3.13;;
18875;SDS011;9570;50.854;13.778;2023-05-10T07:57:11;4.67;;;2.77;;
18875;SDS011;9570;50.854;13.778;2023-05-10T07:59:39;3.87;;;2.80;;
18875;SDS011;9570;50.854;13.778;2023-05-10T08:02:04;4.47;;;2.90;;
18875;SDS011;9570;50.854;13.778;2023-05-10T08:04:30;3.90;;;2.53;;
18875;SDS011;9570;50.854;13.778;2023-05-10T08:06:56;2.93;;;2.37;;
18875;SDS011;9570;50.854;13.778;2023-05-10T08:09:21;4.83;;;2.83;;
18875;SDS011;9570;50.854;13.778;2023-05-10T08:11:48;6.50;;;3.90;;
18875;SDS011;9570;50.854;13.778;2023-05-10T08:14:14;5.17;;;3.40;;
18875;SDS011;9570;50.854;13.778;2023-05-10T08:16:39;5.43;;;3.27;;
18875;SDS011;9570;50.854;13.778;2023-05-10T08:19:05;4.70;;;2.70;;
18875;SDS011;9570;50.854;13.778;2023-05-10T08:21:30;5.00;;;2.83;;
18875;SDS011;9570;50.854;13.778;2023-05-10T08:23:56;2.50;;;2.30;;
18875;SDS011;9570;50.854;13.778;2023-05-10T08:26:22;3.23;;;2.70;;
18875;SDS011;9570;50.854;13.778;2023-05-10T08:28:48;4.30;;;2.80;;
18875;SDS011;9570;50.854;13.778;2023-05-10T08:31:13;4.23;;;3.10;;
18875;SDS011;9570;50.854;13.778;2023-05-10T08:33:39;4.03;;;2.70;;
18875;SDS011;9570;50.854;13.778;2023-05-10T08:36:04;4.27;;;2.93;;
18875;SDS011;9570;50.854;13.778;2023-05-10T08:38:30;5.30;;;3.00;;
18875;SDS011;9570;50.854;13.778;2023-05-10T08:40:56;4.27;;;2.90;;
18875;SDS011;9570;50.854;13.778;2023-05-10T08:43:21;3.23;;;2.93;;
18875;SDS011;9570;50.854;13.778;2023-05-10T08:45:51;5.03;;;3.00;;
18875;SDS011;9570;50.854;13.778;2023-05-10T08:48:18;4.47;;;2.67;;
18875;SDS011;9570;50.854;13.778;2023-05-10T08:50:43;3.10;;;2.80;;
18875;SDS011;9570;50.854;13.778;2023-05-10T08:53:10;3.40;;;3.10;;
18875;SDS011;9570;50.854;13.778;2023-05-10T08:55:38;5.10;;;3.20;;
18875;SDS011;9570;50.854;13.778;2023-05-10T08:58:05;4.87;;;3.47;;
18875;SDS011;9570;50.854;13.778;2023-05-10T09:00:31;5.63;;;3.60;;
18875;SDS011;9570;50.854;13.778;2023-05-10T09:02:57;4.87;;;3.20;;
18875;SDS011;9570;50.854;13.778;2023-05-10T09:05:23;3.63;;;3.30;;
18875;SDS011;9570;50.854;13.778;2023-05-10T09:07:49;4.50;;;3.40;;
18875;SDS011;9570;50.854;13.778;2023-05-10T09:10:14;5.07;;;3.37;;
18875;SDS011;9570;50.854;13.778;2023-05-10T09:12:40;3.17;;;2.87;;
18875;SDS011;9570;50.854;13.778;2023-05-10T09:15:07;4.70;;;3.10;;
18875;SDS011;9570;50.854;13.778;2023-05-10T09:17:33;4.40;;;3.20;;
18875;SDS011;9570;50.854;13.778;2023-05-10T09:20:00;4.03;;;2.97;;
18875;SDS011;9570;50.854;13.778;2023-05-10T09:22:27;3.90;;;3.50;;
18875;SDS011;9570;50.854;13.778;2023-05-10T09:25:06;3.30;;;3.00;;
18875;SDS011;9570;50.854;13.778;2023-05-10T09:27:33;8.33;;;3.33;;
18875;SDS011;9570;50.854;13.778;2023-05-10T09:29:59;5.23;;;3.07;;
18875;SDS011;9570;50.854;13.778;2023-05-10T09:35:07;4.73;;;3.33;;
18875;SDS011;9570;50.854;13.778;2023-05-10T09:37:36;5.90;;;3.53;;
18875;SDS011;9570;50.854;13.778;2023-05-10T09:40:06;4.83;;;3.27;;
18875;SDS011;9570;50.854;13.778;2023-05-10T09:42:42;3.50;;;3.17;;
18875;SDS011;9570;50.854;13.778;2023-05-10T09:45:16;6.00;;;3.90;;
18875;SDS011;9570;50.854;13.778;2023-05-10T09:47:41;9.97;;;3.33;;
18875;SDS011;9570;50.854;13.778;2023-05-10T09:50:07;4.37;;;3.03;;
18875;SDS011;9570;50.854;13.778;2023-05-10T09:55:21;5.90;;;3.50;;
18875;SDS011;9570;50.854;13.778;2023-05-10T09:57:48;3.50;;;2.90;;
18875;SDS011;9570;50.854;13.778;2023-05-10T10:00:16;4.53;;;3.40;;
18875;SDS011;9570;50.854;13.778;2023-05-10T10:02:44;5.97;;;3.47;;
18875;SDS011;9570;50.854;13.778;2023-05-10T10:05:11;3.53;;;3.23;;
18875;SDS011;9570;50.854;13.778;2023-05-10T10:07:36;4.10;;;3.10;;
18875;SDS011;9570;50.854;13.778;2023-05-10T10:10:02;4.23;;;3.03;;
18875;SDS011;9570;50.854;13.778;2023-05-10T10:12:29;4.77;;;3.00;;
18875;SDS011;9570;50.854;13.778;2023-05-10T10:14:55;4.30;;;3.50;;
18875;SDS011;9570;50.854;13.778;2023-05-10T10:17:21;4.57;;;3.27;;
18875;SDS011;9570;50.854;13.778;2023-05-10T10:19:52;3.70;;;3.40;;
18875;SDS011;9570;50.854;13.778;2023-05-10T10:22:17;5.33;;;3.07;;
18875;SDS011;9570;50.854;13.778;2023-05-10T10:24:43;6.10;;;4.23;;
18875;SDS011;9570;50.854;13.778;2023-05-10T10:27:12;6.73;;;4.20;;
18875;SDS011;9570;50.854;13.778;2023-05-10T10:32:32;5.27;;;3.97;;
18875;SDS011;9570;50.854;13.778;2023-05-10T10:35:19;6.00;;;3.73;;
18875;SDS011;9570;50.854;13.778;2023-05-10T10:37:45;5.50;;;3.77;;
18875;SDS011;9570;50.854;13.778;2023-05-10T10:40:22;4.63;;;4.13;;
18875;SDS011;9570;50.854;13.778;2023-05-10T10:42:55;5.57;;;3.60;;
18875;SDS011;9570;50.854;13.778;2023-05-10T10:45:22;4.03;;;3.60;;
18875;SDS011;9570;50.854;13.778;2023-05-10T10:47:49;5.07;;;3.47;;
18875;SDS011;9570;50.854;13.778;2023-05-10T10:50:44;4.00;;;3.60;;
18875;SDS011;9570;50.854;13.778;2023-05-10T10:53:13;4.30;;;3.70;;
18875;SDS011;9570;50.854;13.778;2023-05-10T10:55:48;4.67;;;3.90;;
18875;SDS011;9570;50.854;13.778;2023-05-10T10:58:29;8.43;;;4.03;;
18875;SDS011;9570;50.854;13.778;2023-05-10T11:01:14;4.93;;;4.07;;
18875;SDS011;9570;50.854;13.778;2023-05-10T11:03:54;6.90;;;4.17;;
18875;SDS011;9570;50.854;13.778;2023-05-10T11:06:29;4.67;;;3.77;;
18875;SDS011;9570;50.854;13.778;2023-05-10T11:08:56;6.87;;;4.20;;
18875;SDS011;9570;50.854;13.778;2023-05-10T11:11:22;5.27;;;4.50;;
18875;SDS011;9570;50.854;13.778;2023-05-10T11:13:48;8.00;;;4.77;;
18875;SDS011;9570;50.854;13.778;2023-05-10T11:16:20;5.17;;;4.20;;
18875;SDS011;9570;50.854;13.778;2023-05-10T11:18:53;5.37;;;3.90;;
18875;SDS011;9570;50.854;13.778;2023-05-10T11:21:21;4.03;;;3.60;;
18875;SDS011;9570;50.854;13.778;2023-05-10T11:26:14;6.17;;;4.10;;
18875;SDS011;9570;50.854;13.778;2023-05-10T11:28:43;6.37;;;3.93;;
18875;SDS011;9570;50.854;13.778;2023-05-10T11:31:09;5.30;;;4.57;;
18875;SDS011;9570;50.854;13.778;2023-05-10T11:33:44;6.97;;;4.53;;
18875;SDS011;9570;50.854;13.778;2023-05-10T11:36:10;7.83;;;4.03;;
18875;SDS011;9570;50.854;13.778;2023-05-10T11:38:37;4.50;;;4.10;;
18875;SDS011;9570;50.854;13.778;2023-05-10T11:41:02;6.30;;;4.40;;
18875;SDS011;9570;50.854;13.778;2023-05-10T11:43:28;7.80;;;4.90;;
18875;SDS011;9570;50.854;13.778;2023-05-10T11:45:55;5.17;;;4.27;;
18875;SDS011;9570;50.854;13.778;2023-05-10T11:48:21;7.57;;;4.13;;
18875;SDS011;9570;50.854;13.778;2023-05-10T11:50:48;5.90;;;4.47;;
18875;SDS011;9570;50.854;13.778;2023-05-10T11:53:14;5.17;;;3.90;;
18875;SDS011;9570;50.854;13.778;2023-05-10T11:55:40;6.70;;;4.37;;
18875;SDS011;9570;50.854;13.778;2023-05-10T11:58:05;4.40;;;3.93;;
18875;SDS011;9570;50.854;13.778;2023-05-10T12:00:31;5.23;;;4.57;;
18875;SDS011;9570;50.854;13.778;2023-05-10T12:02:57;7.43;;;4.47;;
18875;SDS011;9570;50.854;13.778;2023-05-10T12:05:22;4.93;;;4.27;;
18875;SDS011;9570;50.854;13.778;2023-05-10T12:07:48;6.33;;;4.50;;
18875;SDS011;9570;50.854;13.778;2023-05-10T12:10:14;9.33;;;3.90;;
18875;SDS011;9570;50.854;13.778;2023-05-10T12:12:44;6.50;;;4.37;;
18875;SDS011;9570;50.854;13.778;2023-05-10T12:15:21;5.10;;;3.80;;
18875;SDS011;9570;50.854;13.778;2023-05-10T12:17:48;5.13;;;3.83;;
18875;SDS011;9570;50.854;13.778;2023-05-10T12:22:45;5.70;;;4.33;;
18875;SDS011;9570;50.854;13.778;2023-05-10T12:25:18;5.23;;;4.03;;
18875;SDS011;9570;50.854;13.778;2023-05-10T12:27:55;8.13;;;4.17;;
18875;SDS011;9570;50.854;13.778;2023-05-10T12:30:22;4.93;;;4.10;;
18875;SDS011;9570;50.854;13.778;2023-05-10T12:32:59;5.07;;;3.40;;
18875;SDS011;9570;50.854;13.778;2023-05-10T12:35:26;7.37;;;4.10;;
18875;SDS011;9570;50.854;13.778;2023-05-10T12:37:54;4.40;;;3.53;;
18875;SDS011;9570;50.854;13.778;2023-05-10T12:40:20;5.13;;;3.57;;
18875;SDS011;9570;50.854;13.778;2023-05-10T12:42:45;10.00;;;3.20;;
18875;SDS011;9570;50.854;13.778;2023-05-10T12:45:11;5.47;;;3.33;;
18875;SDS011;9570;50.854;13.778;2023-05-10T12:47:37;3.77;;;2.90;;
18875;SDS011;9570;50.854;13.778;2023-05-10T12:50:03;4.57;;;2.80;;
18875;SDS011;9570;50.854;13.778;2023-05-10T12:52:29;6.00;;;2.97;;
18875;SDS011;9570;50.854;13.778;2023-05-10T12:54:56;4.17;;;3.53;;
18875;SDS011;9570;50.854;13.778;2023-05-10T12:57:22;5.33;;;3.50;;
18875;SDS011;9570;50.854;13.778;2023-05-10T12:59:48;4.67;;;3.67;;
18875;SDS011;9570;50.854;13.778;2023-05-10T13:02:13;6.80;;;3.30;;
18875;SDS011;9570;50.854;13.778;2023-05-10T13:04:40;5.17;;;3.10;;
18875;SDS011;9570;50.854;13.778;2023-05-10T13:07:06;4.87;;;3.60;;
18875;SDS011;9570;50.854;13.778;2023-05-10T13:09:32;5.50;;;2.93;;
18875;SDS011;9570;50.854;13.778;2023-05-10T13:11:58;4.20;;;3.07;;
18875;SDS011;9570;50.854;13.778;2023-05-10T13:14:24;4.83;;;3.57;;
18875;SDS011;9570;50.854;13.778;2023-05-10T13:16:50;3.83;;;3.13;;
18875;SDS011;9570;50.854;13.778;2023-05-10T13:19:15;6.00;;;2.97;;
18875;SDS011;9570;50.854;13.778;2023-05-10T13:21:42;5.30;;;3.63;;
18875;SDS011;9570;50.854;13.778;2023-05-10T13:24:09;4.67;;;3.40;;
18875;SDS011;9570;50.854;13.778;2023-05-10T13:26:35;5.23;;;3.40;;
18875;SDS011;9570;50.854;13.778;2023-05-10T13:29:01;3.40;;;3.10;;
18875;SDS011;9570;50.854;13.778;2023-05-10T13:31:27;3.80;;;3.40;;
18875;SDS011;9570;50.854;13.778;2023-05-10T13:33:52;3.70;;;3.20;;
18875;SDS011;9570;50.854;13.778;2023-05-10T13:36:18;3.50;;;3.00;;
18875;SDS011;9570;50.854;13.778;2023-05-10T13:38:43;6.23;;;3.77;;
18875;SDS011;9570;50.854;13.778;2023-05-10T13:41:09;6.00;;;3.27;;
18875;SDS011;9570;50.854;13.778;2023-05-10T13:43:35;5.30;;;3.43;;
18875;SDS011;9570;50.854;13.778;2023-05-10T13:46:01;5.23;;;3.37;;
18875;SDS011;9570;50.854;13.778;2023-05-10T13:48:27;3.50;;;3.20;;
18875;SDS011;9570;50.854;13.778;2023-05-10T13:50:53;3.47;;;3.17;;
18875;SDS011;9570;50.854;13.778;2023-05-10T13:53:19;5.03;;;3.50;;
18875;SDS011;9570;50.854;13.778;2023-05-10T13:55:44;5.13;;;3.17;;
18875;SDS011;9570;50.854;13.778;2023-05-10T13:58:10;3.20;;;2.90;;
18875;SDS011;9570;50.854;13.778;2023-05-10T14:00:35;4.80;;;3.40;;
18875;SDS011;9570;50.854;13.778;2023-05-10T14:03:01;4.10;;;3.00;;
18875;SDS011;9570;50.854;13.778;2023-05-10T14:05:27;4.47;;;3.57;;
18875;SDS011;9570;50.854;13.778;2023-05-10T14:07:52;5.60;;;3.33;;
18875;SDS011;9570;50.854;13.778;2023-05-10T14:10:18;4.60;;;3.23;;
18875;SDS011;9570;50.854;13.778;2023-05-10T14:12:44;3.40;;;3.00;;
18875;SDS011;9570;50.854;13.778;2023-05-10T14:15:09;4.03;;;3.20;;
18875;SDS011;9570;50.854;13.778;2023-05-10T14:17:36;3.17;;;2.97;;
18875;SDS011;9570;50.854;13.778;2023-05-10T14:20:01;4.37;;;3.00;;
18875;SDS011;9570;50.854;13.778;2023-05-10T14:22:28;3.73;;;3.30;;
18875;SDS011;9570;50.854;13.778;2023-05-10T14:24:54;12.73;;;3.67;;
18875;SDS011;9570;50.854;13.778;2023-05-10T14:27:19;4.63;;;3.27;;
18875;SDS011;9570;50.854;13.778;2023-05-10T14:29:45;5.93;;;3.43;;
18875;SDS011;9570;50.854;13.778;2023-05-10T14:32:10;6.70;;;3.60;;
18875;SDS011;9570;50.854;13.778;2023-05-10T14:34:36;5.23;;;4.70;;
18875;SDS011;9570;50.854;13.778;2023-05-10T14:37:01;5.73;;;3.60;;
18875;SDS011;9570;50.854;13.778;2023-05-10T14:39:27;11.83;;;9.03;;
18875;SDS011;9570;50.854;13.778;2023-05-10T14:41:54;3.67;;;3.00;;
18875;SDS011;9570;50.854;13.778;2023-05-10T14:44:20;5.73;;;5.10;;
18875;SDS011;9570;50.854;13.778;2023-05-10T14:46:45;9.47;;;7.00;;
18875;SDS011;9570;50.854;13.778;2023-05-10T14:49:11;4.60;;;3.93;;
18875;SDS011;9570;50.854;13.778;2023-05-10T14:51:36;6.63;;;4.50;;
18875;SDS011;9570;50.854;13.778;2023-05-10T14:54:02;6.00;;;5.10;;
18875;SDS011;9570;50.854;13.778;2023-05-10T14:56:27;8.90;;;4.77;;
18875;SDS011;9570;50.854;13.778;2023-05-10T14:58:53;8.97;;;5.90;;
18875;SDS011;9570;50.854;13.778;2023-05-10T15:01:18;11.30;;;8.17;;
18875;SDS011;9570;50.854;13.778;2023-05-10T15:03:44;6.50;;;4.60;;
18875;SDS011;9570;50.854;13.778;2023-05-10T15:06:09;5.33;;;3.30;;
18875;SDS011;9570;50.854;13.778;2023-05-10T15:08:35;4.43;;;4.03;;
18875;SDS011;9570;50.854;13.778;2023-05-10T15:11:00;4.13;;;3.73;;
18875;SDS011;9570;50.854;13.778;2023-05-10T15:13:26;3.80;;;2.97;;
18875;SDS011;9570;50.854;13.778;2023-05-10T15:15:51;3.10;;;2.80;;
18875;SDS011;9570;50.854;13.778;2023-05-10T15:18:17;4.93;;;2.87;;
18875;SDS011;9570;50.854;13.778;2023-05-10T15:20:43;5.87;;;3.07;;